createdAt,value
2019-05-10T00:00:14.891Z,8.90
2019-05-10T00:03:36.635Z,8.70
2019-05-10T00:06:58.516Z,8.43
2019-05-10T00:10:01.557Z,10.07
2019-05-10T00:13:16.948Z,9.83
2019-05-10T00:16:20.876Z,10.33
2019-05-10T00:19:24.799Z,11.33
2019-05-10T00:22:28.697Z,11.30
2019-05-10T00:25:32.500Z,11.50
2019-05-10T00:28:36.477Z,12.10
2019-05-10T00:31:40.378Z,13.10
2019-05-10T00:34:44.333Z,12.40
2019-05-10T00:37:48.290Z,13.90
2019-05-10T00:40:52.138Z,13.70
2019-05-10T00:43:56.007Z,13.97
2019-05-10T00:47:00.513Z,14.30
2019-05-10T00:50:05.101Z,14.50
2019-05-10T00:53:08.929Z,13.73
2019-05-10T00:56:12.927Z,15.07
2019-05-10T00:59:16.880Z,15.43
2019-05-10T01:02:20.737Z,15.50
2019-05-10T01:05:24.675Z,15.03
2019-05-10T01:08:28.507Z,14.47
2019-05-10T01:11:32.448Z,15.17
2019-05-10T01:14:36.269Z,14.87
2019-05-10T01:17:40.086Z,15.00
2019-05-10T01:20:43.910Z,14.80
2019-05-10T01:23:47.741Z,15.17
2019-05-10T01:26:51.642Z,15.47
2019-05-10T01:29:55.464Z,14.50
2019-05-10T01:32:59.384Z,15.23
2019-05-10T01:36:03.292Z,15.33
2019-05-10T01:39:07.345Z,14.63
2019-05-10T01:42:11.176Z,14.97
2019-05-10T01:45:16.080Z,14.40
2019-05-10T01:48:20.028Z,15.40
2019-05-10T01:51:27.533Z,14.73
2019-05-10T01:54:29.503Z,15.77
2019-05-10T01:57:33.315Z,15.63
2019-05-10T02:00:37.222Z,15.63
2019-05-10T02:03:41.081Z,14.50
2019-05-10T02:06:44.976Z,15.50
2019-05-10T02:09:48.896Z,16.27
2019-05-10T02:12:52.729Z,16.23
2019-05-10T02:15:56.560Z,17.07
2019-05-10T02:19:00.415Z,17.60
2019-05-10T02:22:04.534Z,17.23
2019-05-10T02:25:08.665Z,18.07
2019-05-10T02:28:14.155Z,17.47
2019-05-10T02:31:21.490Z,18.93
2019-05-10T02:34:23.651Z,19.90
2019-05-10T02:37:27.524Z,19.97
2019-05-10T02:40:31.342Z,20.33
2019-05-10T02:43:35.340Z,20.70
2019-05-10T02:46:39.347Z,21.37
2019-05-10T02:49:43.271Z,21.77
2019-05-10T02:52:47.205Z,23.10
2019-05-10T02:55:51.954Z,22.70
2019-05-10T02:58:57.343Z,23.67
2019-05-10T03:02:04.558Z,22.90
2019-05-10T03:05:09.961Z,23.17
2019-05-10T03:08:16.262Z,23.37
2019-05-10T03:11:20.384Z,23.63
2019-05-10T03:14:26.820Z,24.20
2019-05-10T03:17:30.651Z,22.87
2019-05-10T03:20:37.868Z,22.77
2019-05-10T03:23:41.855Z,22.97
2019-05-10T03:26:50.788Z,21.30
2019-05-10T03:29:53.882Z,20.90
2019-05-10T03:32:57.751Z,20.67
2019-05-10T03:36:01.717Z,21.30
2019-05-10T03:39:06.772Z,21.50
2019-05-10T03:42:10.759Z,19.97
2019-05-10T03:45:16.185Z,19.33
2019-05-10T03:48:20.106Z,17.67
2019-05-10T03:51:24.006Z,17.97
2019-05-10T03:54:27.826Z,17.17
2019-05-10T03:57:31.629Z,18.03
2019-05-10T04:00:35.464Z,17.20
2019-05-10T04:03:39.305Z,18.03
2019-05-10T04:06:43.234Z,17.90
2019-05-10T04:09:47.059Z,18.77
2019-05-10T04:12:50.902Z,17.97
2019-05-10T04:15:57.835Z,18.93
2019-05-10T04:19:01.772Z,18.70
2019-05-10T04:22:05.724Z,18.70
2019-05-10T04:25:10.056Z,20.37
2019-05-10T04:28:13.841Z,18.87
2019-05-10T04:31:17.833Z,17.57
2019-05-10T04:34:21.774Z,17.47
2019-05-10T04:37:25.596Z,18.83
2019-05-10T04:40:29.439Z,19.07
2019-05-10T04:43:33.362Z,18.97
2019-05-10T04:46:37.159Z,19.47
2019-05-10T04:49:41.063Z,20.87
2019-05-10T04:52:44.917Z,17.33
2019-05-10T04:55:48.748Z,17.57
2019-05-10T04:58:52.559Z,17.73
2019-05-10T05:01:56.387Z,17.03
2019-05-10T05:05:00.233Z,18.43
2019-05-10T05:08:06.269Z,18.00
2019-05-10T05:11:09.762Z,18.00
2019-05-10T05:14:13.594Z,18.13
2019-05-10T05:17:17.403Z,16.97
2019-05-10T05:20:21.318Z,16.10
2019-05-10T05:23:25.129Z,16.93
2019-05-10T05:26:34.515Z,16.63
2019-05-10T05:29:38.332Z,15.93
2019-05-10T05:32:44.288Z,17.17
2019-05-10T05:35:47.837Z,15.07
2019-05-10T05:38:51.653Z,16.50
2019-05-10T05:41:56.727Z,13.10
2019-05-10T05:45:00.920Z,12.17
2019-05-10T05:48:04.821Z,11.53
2019-05-10T05:51:08.716Z,9.53
2019-05-10T05:54:14.978Z,7.70
2019-05-10T05:57:22.226Z,5.63
2019-05-10T06:00:23.770Z,5.47
2019-05-10T06:03:29.521Z,4.60
2019-05-10T06:06:33.136Z,4.00
2019-05-10T06:09:37.912Z,3.70
2019-05-10T06:12:44.575Z,3.00
2019-05-10T06:15:48.127Z,1.97
2019-05-10T06:18:51.936Z,2.23
2019-05-10T06:21:57.972Z,2.40
2019-05-10T06:25:01.521Z,2.10
2019-05-10T06:28:17.455Z,1.90
2019-05-10T06:31:10.999Z,2.20
2019-05-10T06:34:14.825Z,2.07
2019-05-10T06:37:18.643Z,2.47
2019-05-10T06:40:33.228Z,2.30
2019-05-10T06:43:28.159Z,2.30
2019-05-10T06:46:32.014Z,2.53
2019-05-10T06:49:41.705Z,3.00
2019-05-10T06:52:41.578Z,3.00
2019-05-10T06:55:45.412Z,3.47
2019-05-10T06:58:49.287Z,3.20
2019-05-10T07:01:53.096Z,3.53
2019-05-10T07:04:57.084Z,3.33
2019-05-10T07:08:13.179Z,3.20
2019-05-10T07:11:06.609Z,2.53
2019-05-10T07:14:10.443Z,2.40
2019-05-10T07:17:14.261Z,2.27
2019-05-10T07:20:18.245Z,2.67
2019-05-10T07:23:22.074Z,2.57
2019-05-10T07:26:26.781Z,2.70
2019-05-10T07:29:42.172Z,1.80
2019-05-10T07:32:36.531Z,2.17
2019-05-10T07:35:40.344Z,1.90
2019-05-10T07:38:44.233Z,1.90
2019-05-10T07:41:48.161Z,2.10
2019-05-10T07:44:51.972Z,1.90
2019-05-10T07:47:55.869Z,1.70
2019-05-10T07:50:59.686Z,1.67
2019-05-10T07:54:06.245Z,1.87
2019-05-10T07:57:09.169Z,2.10
2019-05-10T08:00:13.223Z,1.97
2019-05-10T08:03:23.348Z,2.10
2019-05-10T08:06:22.711Z,2.10
2019-05-10T08:09:26.632Z,2.30
2019-05-10T08:12:35.204Z,2.60
2019-05-10T08:15:38.152Z,2.03
2019-05-10T08:18:42.480Z,1.80
2019-05-10T08:21:48.903Z,2.73
2019-05-10T08:24:55.912Z,2.00
2019-05-10T08:27:57.589Z,1.67
2019-05-10T08:31:02.470Z,1.67
2019-05-10T08:34:06.879Z,1.63
2019-05-10T08:37:12.841Z,1.30
2019-05-10T08:40:19.641Z,1.50
2019-05-10T08:43:24.664Z,1.70
2019-05-10T08:46:37.333Z,1.30
2019-05-10T08:49:43.535Z,1.30
2019-05-10T08:52:38.963Z,1.13
2019-05-10T08:55:43.431Z,1.20
2019-05-10T08:58:47.570Z,1.43
2019-05-10T09:01:53.798Z,1.40
2019-05-10T09:04:57.032Z,1.07
2019-05-10T09:08:05.486Z,1.30
2019-05-10T09:11:07.184Z,1.20
2019-05-10T09:14:12.241Z,1.60
2019-05-10T09:17:23.650Z,1.40
2019-05-10T09:20:26.525Z,1.50
2019-05-10T09:23:27.802Z,1.73
2019-05-10T09:26:32.293Z,1.83
2019-05-10T09:29:37.529Z,1.47
2019-05-10T09:32:43.499Z,1.40
2019-05-10T09:35:52.378Z,1.23
2019-05-10T09:38:53.020Z,1.20
2019-05-10T09:41:56.920Z,1.07
2019-05-10T09:45:03.089Z,1.30
2019-05-10T09:48:06.419Z,1.50
2019-05-10T09:51:13.478Z,1.40
2019-05-10T09:54:18.138Z,1.60
2019-05-10T09:57:21.600Z,1.40
2019-05-10T10:00:33.445Z,1.47
2019-05-10T10:03:43.191Z,1.53
2019-05-10T10:06:48.335Z,1.43
2019-05-10T10:09:48.480Z,1.33
2019-05-10T10:12:52.484Z,1.43
2019-05-10T10:15:58.119Z,1.53
2019-05-10T10:19:01.837Z,1.40
2019-05-10T10:22:10.799Z,1.43
2019-05-10T10:25:11.416Z,1.50
2019-05-10T10:28:19.945Z,1.10
2019-05-10T10:31:29.569Z,1.57
2019-05-10T10:34:27.211Z,1.60
2019-05-10T10:37:31.501Z,2.43
2019-05-10T10:40:43.912Z,2.50
2019-05-10T10:43:40.818Z,1.73
2019-05-10T10:46:44.633Z,1.63
2019-05-10T10:49:48.419Z,1.27
2019-05-10T10:52:52.267Z,1.33
2019-05-10T10:56:00.891Z,1.20
2019-05-10T10:59:01.626Z,1.50
2019-05-10T11:02:28.883Z,1.20
2019-05-10T11:05:11.255Z,1.23
2019-05-10T11:08:15.066Z,1.30
2019-05-10T11:11:18.994Z,1.23
2019-05-10T11:14:22.813Z,1.30
2019-05-10T11:17:26.746Z,1.20
2019-05-10T11:20:31.779Z,2.00
2019-05-10T11:23:39.158Z,2.40
2019-05-10T11:26:44.665Z,1.77
2019-05-10T11:29:46.987Z,1.90
2019-05-10T11:32:50.831Z,0.90
2019-05-10T11:35:57.763Z,1.37
2019-05-10T11:39:01.532Z,1.13
2019-05-10T11:42:07.313Z,1.50
2019-05-10T11:45:12.846Z,1.30
2019-05-10T11:48:16.760Z,1.20
2019-05-10T11:51:21.180Z,1.60
2019-05-10T11:54:25.268Z,1.27
2019-05-10T11:57:32.422Z,2.90
2019-05-10T12:00:34.712Z,1.60
2019-05-10T12:03:38.543Z,1.30
2019-05-10T12:06:50.050Z,1.97
2019-05-10T12:09:53.305Z,1.30
2019-05-10T12:13:08.446Z,1.43
2019-05-10T12:15:59.985Z,1.77
2019-05-10T12:19:14.915Z,1.40
2019-05-10T12:22:15.459Z,1.03
2019-05-10T12:25:36.168Z,1.30
2019-05-10T12:28:27.434Z,1.57
2019-05-10T12:31:26.501Z,1.67
2019-05-10T12:34:31.128Z,1.87
2019-05-10T12:37:39.590Z,2.63
2019-05-10T12:40:42.483Z,1.70
2019-05-10T12:43:48.343Z,2.00
2019-05-10T12:46:54.325Z,1.93
2019-05-10T12:50:02.100Z,2.40
2019-05-10T12:53:13.398Z,2.17
2019-05-10T12:56:08.898Z,3.07
2019-05-10T12:59:12.791Z,4.30
2019-05-10T13:02:16.694Z,30.97
2019-05-10T13:05:30.695Z,17.50
2019-05-10T13:08:26.165Z,13.00
2019-05-10T13:11:30.086Z,16.00
2019-05-10T13:14:40.130Z,8.77
2019-05-10T13:17:50.173Z,12.77
2019-05-10T13:20:49.955Z,4.03
2019-05-10T13:24:00.422Z,15.87
2019-05-10T13:27:04.412Z,10.13
2019-05-10T13:30:10.272Z,4.10
2019-05-10T13:33:27.933Z,5.67
2019-05-10T13:36:19.772Z,5.50
2019-05-10T13:39:25.679Z,4.60
2019-05-10T13:42:29.171Z,5.97
2019-05-10T13:45:37.551Z,16.87
2019-05-10T13:48:38.553Z,7.70
2019-05-10T13:51:42.409Z,15.43
2019-05-10T13:54:48.292Z,8.53
2019-05-10T13:57:54.165Z,12.73
2019-05-10T14:00:57.714Z,4.00
2019-05-10T14:04:03.493Z,4.30
2019-05-10T14:07:07.074Z,5.30
2019-05-10T14:10:11.152Z,3.63
2019-05-10T14:13:16.797Z,8.93
2019-05-10T14:16:22.524Z,5.40
2019-05-10T14:19:26.553Z,3.20
2019-05-10T14:22:30.528Z,3.47
2019-05-10T14:25:36.750Z,3.33
2019-05-10T14:28:40.051Z,3.20
2019-05-10T14:31:43.912Z,2.63
2019-05-10T14:34:47.702Z,3.87
2019-05-10T14:37:51.614Z,3.40
2019-05-10T14:40:55.514Z,3.27
2019-05-10T14:43:59.387Z,3.37
2019-05-10T14:47:03.202Z,4.07
2019-05-10T14:50:07.574Z,3.60
2019-05-10T14:53:11.488Z,3.73
2019-05-10T14:56:15.448Z,3.23
2019-05-10T14:59:19.267Z,3.47
2019-05-10T15:02:25.040Z,4.17
2019-05-10T15:05:28.692Z,4.13
2019-05-10T15:08:32.548Z,2.97
2019-05-10T15:11:36.847Z,3.17
2019-05-10T15:14:40.828Z,3.10
2019-05-10T15:17:44.845Z,2.53
2019-05-10T15:20:53.988Z,2.97
2019-05-10T15:24:22.454Z,2.90
2019-05-10T15:30:52.684Z,3.13
2019-05-10T15:33:56.769Z,2.80
2019-05-10T15:37:02.599Z,2.60
2019-05-10T15:40:07.950Z,2.80
2019-05-10T15:43:16.865Z,2.50
2019-05-10T15:46:17.956Z,2.37
2019-05-10T15:49:24.334Z,2.60
2019-05-10T15:52:27.734Z,6.20
2019-05-10T15:55:31.684Z,3.13
2019-05-10T15:58:36.581Z,6.93
2019-05-10T16:01:44.975Z,2.70
2019-05-10T16:04:46.817Z,2.47
2019-05-10T16:07:51.570Z,3.10
2019-05-10T16:10:56.217Z,24.87
2019-05-10T16:14:01.676Z,22.03
2019-05-10T16:17:10.555Z,27.17
2019-05-10T16:20:11.555Z,4.70
2019-05-10T16:23:15.378Z,3.13
2019-05-10T16:26:22.847Z,2.50
2019-05-10T16:29:24.946Z,3.20
2019-05-10T16:32:34.494Z,17.00
2019-05-10T16:35:38.896Z,4.70
2019-05-10T16:38:40.803Z,9.30
2019-05-10T16:41:45.064Z,8.07
2019-05-10T16:44:49.258Z,11.83
2019-05-10T16:47:53.234Z,2.83
2019-05-10T16:50:57.537Z,2.83
2019-05-10T16:54:01.580Z,2.20
2019-05-10T16:57:05.951Z,5.80
2019-05-10T17:00:10.961Z,10.43
2019-05-10T17:03:18.428Z,11.17
2019-05-10T17:06:20.756Z,9.93
2019-05-10T17:09:24.658Z,3.50
2019-05-10T17:12:29.293Z,4.03
2019-05-10T17:15:33.928Z,3.23
2019-05-10T17:18:38.715Z,8.97
2019-05-10T17:21:42.564Z,7.97
2019-05-10T17:24:46.541Z,3.47
2019-05-10T17:27:57.339Z,3.40
2019-05-10T17:31:00.109Z,3.80
2019-05-10T17:34:01.470Z,4.77
2019-05-10T17:37:05.380Z,2.60
2019-05-10T17:40:12.083Z,3.20
2019-05-10T17:43:20.935Z,2.27
2019-05-10T17:46:20.820Z,2.23
2019-05-10T17:49:24.917Z,1.93
2019-05-10T17:52:28.747Z,2.27
2019-05-10T17:55:32.600Z,3.20
2019-05-10T17:58:36.487Z,3.20
2019-05-10T18:01:40.306Z,2.60
2019-05-10T18:04:44.406Z,4.27
2019-05-10T18:07:48.318Z,3.87
2019-05-10T18:10:57.065Z,5.33
2019-05-10T18:13:57.788Z,2.90
2019-05-10T18:17:01.609Z,2.80
2019-05-10T18:20:06.153Z,2.77
2019-05-10T18:23:10.015Z,3.23
2019-05-10T18:26:13.841Z,2.50
2019-05-10T18:29:17.645Z,2.40
2019-05-10T18:32:21.552Z,2.03
2019-05-10T18:35:25.443Z,5.73
2019-05-10T18:38:30.824Z,3.00
2019-05-10T18:41:34.871Z,3.40
2019-05-10T18:44:38.701Z,4.43
2019-05-10T18:47:42.503Z,5.57
2019-05-10T18:50:47.348Z,4.50
2019-05-10T18:53:51.341Z,4.97
2019-05-10T18:56:55.156Z,4.90
2019-05-10T18:59:59.008Z,3.03
2019-05-10T19:03:02.940Z,2.20
2019-05-10T19:06:10.961Z,2.20
2019-05-10T19:09:12.477Z,2.67
2019-05-10T19:12:18.629Z,2.53
2019-05-10T19:15:21.941Z,1.93
2019-05-10T19:18:25.764Z,2.60
2019-05-10T19:21:30.735Z,2.97
2019-05-10T19:24:35.284Z,4.67
2019-05-10T19:27:44.667Z,3.80
2019-05-10T19:30:44.820Z,5.73
2019-05-10T19:33:48.637Z,5.87
2019-05-10T19:36:52.542Z,13.83
2019-05-10T19:39:56.339Z,18.77
2019-05-10T19:43:00.169Z,21.23
2019-05-10T19:46:04.092Z,15.77
2019-05-10T19:49:13.401Z,12.17
2019-05-10T19:52:13.541Z,10.10
2019-05-10T19:55:19.506Z,8.03
2019-05-10T19:58:26.586Z,10.10
2019-05-10T20:01:28.583Z,9.07
2019-05-10T20:04:32.501Z,7.60
2019-05-10T20:07:45.409Z,7.97
2019-05-10T20:10:42.164Z,5.90
2019-05-10T20:13:46.058Z,4.73
2019-05-10T20:16:53.088Z,4.10
2019-05-10T20:19:55.413Z,4.43
2019-05-10T20:22:59.326Z,5.47
2019-05-10T20:26:03.209Z,5.10
2019-05-10T20:29:07.080Z,4.70
2019-05-10T20:32:10.984Z,5.03
2019-05-10T20:35:14.842Z,4.37
2019-05-10T20:38:18.755Z,6.07
2019-05-10T20:41:22.547Z,3.90
2019-05-10T20:44:26.438Z,4.00
2019-05-10T20:47:30.301Z,3.70
2019-05-10T20:50:34.111Z,2.97
2019-05-10T20:53:37.936Z,4.50
2019-05-10T20:56:41.760Z,4.20
2019-05-10T20:59:45.594Z,4.87
2019-05-10T21:02:49.400Z,4.40
2019-05-10T21:05:53.309Z,4.60
2019-05-10T21:08:57.130Z,4.47
2019-05-10T21:12:00.981Z,4.13
2019-05-10T21:15:04.992Z,4.07
2019-05-10T21:18:08.904Z,4.37
2019-05-10T21:21:12.732Z,5.00
2019-05-10T21:24:16.562Z,5.73
2019-05-10T21:27:20.447Z,6.03
2019-05-10T21:30:24.316Z,5.13
2019-05-10T21:33:28.130Z,5.30
2019-05-10T21:36:32.033Z,5.50
2019-05-10T21:39:35.900Z,4.73
2019-05-10T21:42:39.798Z,6.33
2019-05-10T21:45:43.635Z,5.40
2019-05-10T21:48:47.479Z,5.33
2019-05-10T21:51:51.273Z,5.50
2019-05-10T21:54:55.090Z,4.90
2019-05-10T21:57:58.896Z,4.77
2019-05-10T22:01:02.793Z,3.97
2019-05-10T22:04:06.722Z,4.27
2019-05-10T22:07:10.669Z,4.23
2019-05-10T22:10:14.717Z,3.90
2019-05-10T22:13:18.576Z,4.00
2019-05-10T22:16:22.522Z,3.73
2019-05-10T22:19:26.358Z,4.33
2019-05-10T22:22:30.204Z,4.10
2019-05-10T22:25:34.164Z,4.13
2019-05-10T22:28:38.015Z,4.13
2019-05-10T22:31:41.907Z,3.87
2019-05-10T22:34:45.741Z,3.10
2019-05-10T22:37:49.578Z,3.10
2019-05-10T22:40:53.376Z,3.37
2019-05-10T22:43:57.261Z,2.97
2019-05-10T22:47:01.168Z,3.03
2019-05-10T22:50:05.271Z,3.00
2019-05-10T22:53:09.107Z,3.43
2019-05-10T22:56:12.914Z,3.23
2019-05-10T22:59:16.768Z,3.97
2019-05-10T23:02:20.571Z,3.77
2019-05-10T23:05:24.428Z,3.33
2019-05-10T23:08:28.420Z,3.50
2019-05-10T23:11:32.244Z,3.53
2019-05-10T23:14:36.055Z,3.00
2019-05-10T23:17:39.870Z,3.03
2019-05-10T23:20:43.675Z,3.40
2019-05-10T23:23:48.283Z,3.73
2019-05-10T23:26:52.139Z,3.03
2019-05-10T23:29:55.961Z,3.00
2019-05-10T23:32:59.775Z,2.80
2019-05-10T23:36:03.710Z,2.70
2019-05-10T23:39:08.259Z,2.43
2019-05-10T23:42:12.383Z,2.47
2019-05-10T23:45:16.334Z,2.90
2019-05-10T23:48:20.153Z,3.23
2019-05-10T23:51:23.990Z,3.10
2019-05-10T23:54:27.854Z,3.13
2019-05-10T23:57:31.737Z,2.80
